createdAt,value
2022-08-12T00:01:05.354Z,24.70
2022-08-12T00:03:52.321Z,24.70
2022-08-12T00:06:39.662Z,24.70
2022-08-12T00:09:26.486Z,24.70
2022-08-12T00:12:13.153Z,24.70
2022-08-12T00:14:59.365Z,24.60
2022-08-12T00:17:45.175Z,24.60
2022-08-12T00:20:31.342Z,24.60
2022-08-12T00:23:17.600Z,24.60
2022-08-12T00:26:23.155Z,24.60
2022-08-12T00:29:11.689Z,24.60
2022-08-12T00:32:00.267Z,24.50
2022-08-12T00:34:47.800Z,24.50
2022-08-12T00:37:35.843Z,24.50
2022-08-12T00:40:25.307Z,24.50
2022-08-12T00:42:53.532Z,24.40
2022-08-12T00:45:21.581Z,24.40
2022-08-12T00:47:51.932Z,24.40
2022-08-12T00:50:21.671Z,24.40
2022-08-12T00:52:52.975Z,24.40
2022-08-12T00:55:21.563Z,24.40
2022-08-12T00:57:52.092Z,24.40
2022-08-12T01:00:23.517Z,24.40
2022-08-12T01:02:53.678Z,24.40
2022-08-12T01:05:42.164Z,24.40
2022-08-12T01:08:28.932Z,24.40
2022-08-12T01:11:15.462Z,24.40
2022-08-12T01:13:48.170Z,24.40
2022-08-12T01:16:24.263Z,24.40
2022-08-12T01:18:54.638Z,24.30
2022-08-12T01:21:27.982Z,24.30
2022-08-12T01:24:29.657Z,24.30
2022-08-12T01:27:00.436Z,24.30
2022-08-12T01:29:32.475Z,24.30
2022-08-12T01:32:06.458Z,24.20
2022-08-12T01:34:39.577Z,24.30
2022-08-12T01:37:09.205Z,24.20
2022-08-12T01:40:33.443Z,24.20
2022-08-12T01:42:42.227Z,24.20
2022-08-12T01:45:12.564Z,24.20
2022-08-12T01:48:17.753Z,24.20
2022-08-12T01:50:48.160Z,24.20
2022-08-12T01:53:20.803Z,24.20
2022-08-12T01:55:48.564Z,24.20
2022-08-12T01:59:02.232Z,24.20
2022-08-12T02:01:36.372Z,24.10
2022-08-12T02:04:31.794Z,24.10
2022-08-12T02:07:42.674Z,24.10
2022-08-12T02:11:10.265Z,24.20
2022-08-12T02:14:12.743Z,24.20
2022-08-12T02:16:45.510Z,24.20
2022-08-12T02:19:40.760Z,24.30
2022-08-12T02:22:47.443Z,24.30
2022-08-12T02:25:37.570Z,24.20
2022-08-12T02:28:08.208Z,24.20
2022-08-12T02:30:42.378Z,24.20
2022-08-12T02:33:11.162Z,24.20
2022-08-12T02:35:39.896Z,24.20
2022-08-12T02:38:10.431Z,24.20
2022-08-12T02:40:40.083Z,24.20
2022-08-12T02:43:21.979Z,24.10
2022-08-12T02:45:53.697Z,24.10
2022-08-12T02:48:30.333Z,24.10
2022-08-12T02:51:04.514Z,24.10
2022-08-12T02:53:34.495Z,24.10
2022-08-12T02:56:05.372Z,24.10
2022-08-12T02:58:35.156Z,24.10
2022-08-12T03:01:05.766Z,24.10
2022-08-12T03:03:34.936Z,24.10
2022-08-12T03:06:15.973Z,24.10
2022-08-12T03:08:52.568Z,24.10
2022-08-12T03:11:42.675Z,24.00
2022-08-12T03:14:14.415Z,24.00
2022-08-12T03:16:42.109Z,24.00
2022-08-12T03:19:09.564Z,24.00
2022-08-12T03:21:53.103Z,24.10
2022-08-12T03:24:27.645Z,24.10
2022-08-12T03:27:00.394Z,24.10
2022-08-12T03:29:30.513Z,24.10
2022-08-12T03:32:01.257Z,24.10
2022-08-12T03:34:30.529Z,24.00
2022-08-12T03:36:59.073Z,24.10
2022-08-12T03:39:39.285Z,24.10
2022-08-12T03:42:25.473Z,24.10
2022-08-12T03:45:23.046Z,24.10
2022-08-12T03:48:22.586Z,24.00
2022-08-12T03:51:08.977Z,24.00
2022-08-12T03:53:55.930Z,24.00
2022-08-12T03:56:42.251Z,24.00
2022-08-12T03:59:28.262Z,24.00
2022-08-12T04:01:59.786Z,24.00
2022-08-12T04:04:34.311Z,24.00
2022-08-12T04:07:11.205Z,24.00
2022-08-12T04:09:40.879Z,24.00
2022-08-12T04:12:29.961Z,24.00
2022-08-12T04:15:01.200Z,24.00
2022-08-12T04:17:28.983Z,24.00
2022-08-12T04:19:58.129Z,23.90
2022-08-12T04:22:30.937Z,24.00
2022-08-12T04:25:03.050Z,24.00
2022-08-12T04:27:32.270Z,24.00
2022-08-12T04:30:29.149Z,24.00
2022-08-12T04:32:53.859Z,24.00
2022-08-12T04:35:21.416Z,24.10
2022-08-12T04:37:58.094Z,24.10
2022-08-12T04:40:31.711Z,24.10
2022-08-12T04:43:01.561Z,24.10
2022-08-12T04:45:31.172Z,24.10
2022-08-12T04:47:58.556Z,24.10
2022-08-12T04:50:34.398Z,24.10
2022-08-12T04:53:05.967Z,24.20
2022-08-12T04:55:34.889Z,24.20
2022-08-12T04:58:02.413Z,24.20
2022-08-12T05:00:29.625Z,24.30
2022-08-12T05:02:57.064Z,24.30
2022-08-12T05:05:24.601Z,24.40
2022-08-12T05:07:55.007Z,24.50
2022-08-12T05:10:33.710Z,24.50
2022-08-12T05:13:07.502Z,24.60
2022-08-12T05:16:02.667Z,24.70
2022-08-12T05:18:29.387Z,24.70
2022-08-12T05:20:59.313Z,24.80
2022-08-12T05:23:27.098Z,24.90
2022-08-12T05:25:59.373Z,24.90
2022-08-12T05:28:27.723Z,25.00
2022-08-12T05:30:56.717Z,25.00
2022-08-12T05:33:33.361Z,25.00
2022-08-12T05:36:00.663Z,25.00
2022-08-12T05:38:46.522Z,25.10
2022-08-12T05:41:20.668Z,25.10
2022-08-12T05:43:56.418Z,25.10
2022-08-12T05:46:25.199Z,25.10
2022-08-12T05:48:54.665Z,25.10
2022-08-12T05:51:30.040Z,25.20
2022-08-12T05:54:07.432Z,25.30
2022-08-12T05:56:36.281Z,25.40
2022-08-12T05:59:09.530Z,25.50
2022-08-12T06:02:09.111Z,25.70
2022-08-12T06:04:24.884Z,25.80
2022-08-12T06:06:53.721Z,26.00
2022-08-12T06:09:22.791Z,26.10
2022-08-12T06:12:05.525Z,26.20
2022-08-12T06:14:37.006Z,26.30
2022-08-12T06:17:05.435Z,26.40
2022-08-12T06:20:26.367Z,26.40
2022-08-12T06:22:20.031Z,26.40
2022-08-12T06:24:48.654Z,26.40
2022-08-12T06:27:18.998Z,26.40
2022-08-12T06:30:08.821Z,26.40
2022-08-12T06:32:34.472Z,26.40
2022-08-12T06:35:25.500Z,26.30
2022-08-12T06:37:57.127Z,26.00
2022-08-12T06:40:43.973Z,25.60
2022-08-12T06:43:11.354Z,25.10
2022-08-12T06:45:46.845Z,24.60
2022-08-12T06:48:15.033Z,24.30
2022-08-12T06:50:42.684Z,24.00
2022-08-12T06:53:11.470Z,23.90
2022-08-12T06:55:56.653Z,23.90
2022-08-12T06:58:30.205Z,24.10
2022-08-12T07:00:58.154Z,24.30
2022-08-12T07:03:29.940Z,24.60
2022-08-12T07:06:04.732Z,24.80
2022-08-12T07:08:35.022Z,25.10
2022-08-12T07:11:04.421Z,25.40
2022-08-12T07:14:12.410Z,25.70
2022-08-12T07:16:49.565Z,25.90
2022-08-12T07:19:17.473Z,26.10
2022-08-12T07:21:58.975Z,26.20
2022-08-12T07:24:27.805Z,26.40
2022-08-12T07:26:56.865Z,26.50
2022-08-12T07:29:57.830Z,26.60
2022-08-12T07:32:13.489Z,26.70
2022-08-12T07:34:42.510Z,26.40
2022-08-12T07:37:09.825Z,26.30
2022-08-12T07:39:37.289Z,26.00
2022-08-12T07:42:18.680Z,25.80
2022-08-12T07:44:47.360Z,25.70
2022-08-12T07:47:19.254Z,25.60
2022-08-12T07:50:05.633Z,25.60
2022-08-12T07:52:35.446Z,25.70
2022-08-12T07:55:03.638Z,25.90
2022-08-12T07:57:34.471Z,26.20
2022-08-12T08:00:04.866Z,26.40
2022-08-12T08:02:37.700Z,26.60
2022-08-12T08:05:05.899Z,26.90
2022-08-12T08:07:33.389Z,26.90
2022-08-12T08:10:02.634Z,27.00
2022-08-12T08:12:48.417Z,26.90
2022-08-12T08:15:20.335Z,26.80
2022-08-12T08:18:26.435Z,26.50
2022-08-12T08:20:55.756Z,25.90
2022-08-12T08:23:29.205Z,25.90
2022-08-12T08:25:57.127Z,25.80
2022-08-12T08:28:24.362Z,25.90
2022-08-12T08:30:53.033Z,26.10
2022-08-12T08:33:23.535Z,26.00
2022-08-12T08:36:23.581Z,26.10
2022-08-12T08:38:57.686Z,26.10
2022-08-12T08:42:15.751Z,26.10
2022-08-12T08:44:33.462Z,26.20
2022-08-12T08:47:01.465Z,26.30
2022-08-12T08:49:28.772Z,26.50
2022-08-12T08:51:56.032Z,26.70
2022-08-12T08:54:24.873Z,26.80
2022-08-12T08:56:52.528Z,27.00
2022-08-12T08:59:20.233Z,27.40
2022-08-12T09:01:48.600Z,27.70
2022-08-12T09:05:09.607Z,27.80
2022-08-12T09:13:00.824Z,27.80
2022-08-12T09:15:35.666Z,28.00
2022-08-12T09:18:09.073Z,28.20
2022-08-12T09:20:37.277Z,28.30
2022-08-12T09:23:58.431Z,28.50
2022-08-12T09:25:57.059Z,28.70
2022-08-12T09:28:31.198Z,28.90
2022-08-12T09:31:00.265Z,29.20
2022-08-12T09:34:26.222Z,29.40
2022-08-12T09:36:31.459Z,29.30
2022-08-12T09:40:06.017Z,29.20
2022-08-12T09:42:33.304Z,29.40
2022-08-12T09:45:23.953Z,29.10
2022-08-12T09:47:59.514Z,28.80
2022-08-12T09:50:28.291Z,28.40
2022-08-12T09:53:29.332Z,28.40
2022-08-12T09:57:00.873Z,28.80
2022-08-12T09:59:01.751Z,28.90
2022-08-12T10:01:34.934Z,28.90
2022-08-12T10:04:19.520Z,29.20
2022-08-12T10:06:54.098Z,29.30
2022-08-12T10:09:22.991Z,29.10
2022-08-12T10:12:14.409Z,29.40
2022-08-12T10:14:58.516Z,29.70
2022-08-12T10:17:25.775Z,29.80
2022-08-12T10:19:53.333Z,29.90
2022-08-12T10:22:38.090Z,29.70
2022-08-12T10:26:18.460Z,29.20
2022-08-12T10:28:34.085Z,28.80
2022-08-12T10:31:04.867Z,28.70
2022-08-12T10:33:33.712Z,28.80
2022-08-12T10:36:20.955Z,29.00
2022-08-12T10:39:03.812Z,29.20
2022-08-12T10:42:09.784Z,29.10
2022-08-12T10:44:38.123Z,29.30
2022-08-12T10:47:26.129Z,29.30
2022-08-12T10:50:02.982Z,29.60
2022-08-12T10:52:41.002Z,29.80
2022-08-12T10:55:13.378Z,29.60
2022-08-12T10:58:14.096Z,29.70
2022-08-12T11:00:34.324Z,29.60
2022-08-12T11:04:24.947Z,29.80
2022-08-12T11:07:06.338Z,30.20
2022-08-12T11:08:43.326Z,30.30
2022-08-12T11:12:07.556Z,30.70
2022-08-12T11:14:06.092Z,30.90
2022-08-12T11:16:40.501Z,31.00
2022-08-12T11:19:28.872Z,30.80
2022-08-12T11:22:01.335Z,30.90
2022-08-12T11:24:32.283Z,30.50
2022-08-12T11:27:07.918Z,30.60
2022-08-12T11:30:05.490Z,30.40
2022-08-12T11:32:25.806Z,30.70
2022-08-12T11:34:54.909Z,31.20
2022-08-12T11:37:24.758Z,31.10
2022-08-12T11:42:46.315Z,31.30
2022-08-12T11:45:16.513Z,31.50
2022-08-12T11:47:44.673Z,31.90
2022-08-12T11:50:19.242Z,31.80
2022-08-12T11:52:55.269Z,31.80
2022-08-12T11:55:27.617Z,31.90
2022-08-12T11:58:34.069Z,32.00
2022-08-12T12:03:44.058Z,31.70
2022-08-12T12:06:18.071Z,31.90
2022-08-12T12:08:50.811Z,32.10
2022-08-12T12:11:20.440Z,32.40
2022-08-12T12:14:06.561Z,32.60
2022-08-12T12:16:39.707Z,32.30
2022-08-12T12:19:08.970Z,31.60
2022-08-12T12:21:48.818Z,31.00
2022-08-12T12:24:21.825Z,30.80
2022-08-12T12:27:00.442Z,30.30
2022-08-12T12:30:14.096Z,30.40
2022-08-12T12:32:18.603Z,30.80
2022-08-12T12:35:14.619Z,31.40
2022-08-12T12:38:05.062Z,32.00
2022-08-12T12:40:22.978Z,33.00
2022-08-12T12:43:01.830Z,33.30
2022-08-12T12:45:35.486Z,33.80
2022-08-12T12:48:11.587Z,33.20
2022-08-12T12:50:42.757Z,32.30
2022-08-12T12:54:05.811Z,31.90
2022-08-12T12:56:12.361Z,32.20
2022-08-12T12:58:40.375Z,32.60
2022-08-12T13:01:27.818Z,32.50
2022-08-12T13:04:01.991Z,32.40
2022-08-12T13:06:31.671Z,32.50
2022-08-12T13:09:03.195Z,32.40
2022-08-12T13:11:41.922Z,32.90
2022-08-12T13:14:27.836Z,33.50
2022-08-12T13:17:10.829Z,33.10
2022-08-12T13:19:50.231Z,32.50
2022-08-12T13:22:23.628Z,32.50
2022-08-12T13:25:13.026Z,33.10
2022-08-12T13:28:00.355Z,33.40
2022-08-12T13:30:34.402Z,32.60
2022-08-12T13:33:07.140Z,32.20
2022-08-12T13:36:06.206Z,31.70
2022-08-12T13:38:55.455Z,31.80
2022-08-12T13:41:42.666Z,31.90
2022-08-12T13:44:12.342Z,32.60
2022-08-12T13:46:42.269Z,32.90
2022-08-12T13:49:53.928Z,33.10
2022-08-12T13:52:11.077Z,33.00
2022-08-12T13:54:42.108Z,32.80
2022-08-12T13:57:11.100Z,32.90
2022-08-12T13:59:55.609Z,32.60
2022-08-12T14:02:27.903Z,32.80
2022-08-12T14:04:57.833Z,33.40
2022-08-12T14:07:31.131Z,33.90
2022-08-12T14:10:38.960Z,34.50
2022-08-12T14:14:03.754Z,33.50
2022-08-12T14:16:46.929Z,32.90
2022-08-12T14:19:10.622Z,32.60
2022-08-12T14:21:59.879Z,32.20
2022-08-12T14:24:41.321Z,31.60
2022-08-12T14:27:11.188Z,30.90
2022-08-12T14:30:05.350Z,29.80
2022-08-12T14:32:40.098Z,29.30
2022-08-12T14:35:10.517Z,29.10
2022-08-12T14:37:56.105Z,29.10
2022-08-12T14:40:37.262Z,28.90
2022-08-12T14:43:06.788Z,28.70
2022-08-12T14:45:46.842Z,28.50
2022-08-12T14:48:24.115Z,28.50
2022-08-12T14:52:16.204Z,28.50
2022-08-12T14:59:56.358Z,28.20
2022-08-12T15:02:26.908Z,28.00
2022-08-12T15:05:03.506Z,28.00
2022-08-12T15:07:33.550Z,27.90
2022-08-12T15:10:31.077Z,27.80
2022-08-12T15:13:08.293Z,27.80
2022-08-12T15:15:43.619Z,27.70
2022-08-12T15:18:37.266Z,27.70
2022-08-12T15:21:11.522Z,27.70
2022-08-12T15:23:55.113Z,27.80
2022-08-12T15:26:27.349Z,27.80
2022-08-12T15:28:57.815Z,27.70
2022-08-12T15:31:27.857Z,27.70
2022-08-12T15:34:05.078Z,27.60
2022-08-12T15:36:54.390Z,27.50
2022-08-12T15:39:22.578Z,27.50
2022-08-12T15:41:55.259Z,27.50
2022-08-12T15:44:38.489Z,27.60
2022-08-12T15:47:11.130Z,27.70
2022-08-12T15:49:54.473Z,27.80
2022-08-12T15:52:28.396Z,27.70
2022-08-12T15:55:11.690Z,27.80
2022-08-12T15:57:56.125Z,27.70
2022-08-12T16:00:33.579Z,27.70
2022-08-12T16:03:13.593Z,27.60
2022-08-12T16:06:15.444Z,27.60
2022-08-12T16:08:36.952Z,27.60
2022-08-12T16:11:14.744Z,27.40
2022-08-12T16:13:49.116Z,27.30
2022-08-12T16:16:24.088Z,27.40
2022-08-12T16:21:51.761Z,27.40
2022-08-12T16:24:27.883Z,27.40
2022-08-12T16:26:57.284Z,27.40
2022-08-12T16:30:01.994Z,27.50
2022-08-12T16:32:36.176Z,27.40
2022-08-12T16:38:25.761Z,27.30
2022-08-12T16:43:27.077Z,27.30
2022-08-12T16:46:24.041Z,27.20
2022-08-12T16:48:47.381Z,27.10
2022-08-12T16:51:17.347Z,27.10
2022-08-12T16:53:46.264Z,26.90
2022-08-12T16:56:18.123Z,26.80
2022-08-12T16:58:47.760Z,26.80
2022-08-12T17:01:23.388Z,26.80
2022-08-12T17:04:08.176Z,26.70
2022-08-12T17:06:47.115Z,26.70
2022-08-12T17:09:18.038Z,26.70
2022-08-12T17:11:49.048Z,26.70
2022-08-12T17:14:23.519Z,26.70
2022-08-12T17:16:57.081Z,26.60
2022-08-12T17:20:02.466Z,26.50
2022-08-12T17:22:21.595Z,26.50
2022-08-12T17:24:55.480Z,26.40
2022-08-12T17:27:36.197Z,26.40
2022-08-12T17:30:13.828Z,26.40
2022-08-12T17:32:46.449Z,26.40
2022-08-12T17:35:36.709Z,26.40
2022-08-12T17:38:11.473Z,26.40
2022-08-12T17:40:42.209Z,26.30
2022-08-12T17:43:57.703Z,26.30
2022-08-12T17:46:02.048Z,26.30
2022-08-12T17:48:34.461Z,26.20
2022-08-12T17:51:16.410Z,26.20
2022-08-12T17:54:11.527Z,26.20
2022-08-12T17:56:43.287Z,26.20
2022-08-12T17:59:48.916Z,26.20
2022-08-12T18:02:29.891Z,26.20
2022-08-12T18:05:04.698Z,26.10
2022-08-12T18:07:36.005Z,26.10
2022-08-12T18:10:09.922Z,26.10
2022-08-12T18:12:40.059Z,26.10
2022-08-12T18:15:26.792Z,26.10
2022-08-12T18:18:16.665Z,26.00
2022-08-12T18:20:46.996Z,26.00
2022-08-12T18:23:14.391Z,26.00
2022-08-12T18:26:17.736Z,25.90
2022-08-12T18:28:48.158Z,25.90
2022-08-12T18:31:24.331Z,25.90
2022-08-12T18:34:15.923Z,25.90
2022-08-12T18:36:50.291Z,25.80
2022-08-12T18:39:20.855Z,25.80
2022-08-12T18:41:54.880Z,25.80
2022-08-12T18:44:43.329Z,25.80
2022-08-12T18:47:15.912Z,25.80
2022-08-12T18:49:48.522Z,25.70
2022-08-12T18:52:19.292Z,25.70
2022-08-12T18:54:49.363Z,25.70
2022-08-12T18:58:06.405Z,25.70
2022-08-12T19:00:21.581Z,25.60
2022-08-12T19:02:53.363Z,25.60
2022-08-12T19:05:23.592Z,25.50
2022-08-12T19:08:19.586Z,25.50
2022-08-12T19:10:55.624Z,25.50
2022-08-12T19:13:43.723Z,25.50
2022-08-12T19:16:11.751Z,25.50
2022-08-12T19:18:44.843Z,25.50
2022-08-12T19:21:16.318Z,25.50
2022-08-12T19:24:10.529Z,25.50
2022-08-12T19:26:47.461Z,25.50
2022-08-12T19:29:29.601Z,25.50
2022-08-12T19:32:23.340Z,25.50
2022-08-12T19:38:03.886Z,25.40
2022-08-12T19:40:42.909Z,25.40
2022-08-12T19:43:21.125Z,25.40
2022-08-12T19:48:45.768Z,25.30
2022-08-12T19:51:35.784Z,25.30
2022-08-12T19:54:07.924Z,25.30
2022-08-12T19:56:41.227Z,25.40
2022-08-12T19:59:43.034Z,25.40
2022-08-12T20:02:34.503Z,25.30
2022-08-12T20:06:06.898Z,25.30
2022-08-12T20:07:59.009Z,25.20
2022-08-12T20:10:35.435Z,25.30
2022-08-12T20:13:19.032Z,25.30
2022-08-12T20:15:59.488Z,25.20
2022-08-12T20:18:52.978Z,25.20
2022-08-12T20:21:17.691Z,25.20
2022-08-12T20:24:00.795Z,25.20
2022-08-12T20:26:31.415Z,25.20
2022-08-12T20:29:04.364Z,25.20
2022-08-12T20:31:37.495Z,25.20
2022-08-12T20:34:12.128Z,25.10
2022-08-12T20:36:47.852Z,25.10
2022-08-12T20:39:53.505Z,25.10
2022-08-12T20:42:18.948Z,25.10
2022-08-12T20:44:49.107Z,25.10
2022-08-12T20:47:20.741Z,25.00
2022-08-12T20:49:54.988Z,25.00
2022-08-12T20:52:30.152Z,25.00
2022-08-12T20:54:58.708Z,25.10
2022-08-12T20:57:38.363Z,25.10
2022-08-12T21:00:28.099Z,25.00
2022-08-12T21:03:18.164Z,25.00
2022-08-12T21:06:11.795Z,25.10
2022-08-12T21:08:42.953Z,25.10
2022-08-12T21:11:10.631Z,25.10
2022-08-12T21:13:39.220Z,25.00
2022-08-12T21:16:09.963Z,25.00
2022-08-12T21:18:38.380Z,25.00
2022-08-12T21:21:23.676Z,25.00
2022-08-12T21:23:56.576Z,25.00
2022-08-12T21:26:28.075Z,24.90
2022-08-12T21:29:01.701Z,24.90
2022-08-12T21:32:40.078Z,24.80
2022-08-12T21:34:26.351Z,24.80
2022-08-12T21:37:13.207Z,24.80
2022-08-12T21:39:52.225Z,24.80
2022-08-12T21:42:20.424Z,24.80
2022-08-12T21:45:46.509Z,24.70
2022-08-12T21:47:40.917Z,24.70
2022-08-12T21:50:09.549Z,24.70
2022-08-12T21:52:40.888Z,24.80
2022-08-12T21:55:18.722Z,24.80
2022-08-12T21:57:53.690Z,24.70
2022-08-12T22:00:33.552Z,24.70
2022-08-12T22:04:03.844Z,24.60
2022-08-12T22:06:26.109Z,24.60
2022-08-12T22:09:05.440Z,24.60
2022-08-12T22:11:42.039Z,24.60
2022-08-12T22:14:21.243Z,24.60
2022-08-12T22:16:52.116Z,24.50
2022-08-12T22:19:19.831Z,24.50
2022-08-12T22:21:54.934Z,24.50
2022-08-12T22:24:27.248Z,24.50
2022-08-12T22:26:59.011Z,24.40
2022-08-12T22:29:44.801Z,24.40
2022-08-12T22:32:15.621Z,24.30
2022-08-12T22:34:44.755Z,24.30
2022-08-12T22:37:20.175Z,24.30
2022-08-12T22:39:49.157Z,24.30
2022-08-12T22:42:35.706Z,24.30
2022-08-12T22:45:23.322Z,24.30
2022-08-12T22:47:55.373Z,24.20
2022-08-12T22:50:26.889Z,24.20
2022-08-12T22:53:15.005Z,24.30
2022-08-12T22:55:58.863Z,24.20
2022-08-12T22:58:31.859Z,24.20
2022-08-12T23:01:01.876Z,24.20
2022-08-12T23:03:49.726Z,24.20
2022-08-12T23:06:20.142Z,24.10
2022-08-12T23:08:48.321Z,24.10
2022-08-12T23:11:17.336Z,24.10
2022-08-12T23:13:56.398Z,24.00
2022-08-12T23:16:33.180Z,24.00
2022-08-12T23:19:09.483Z,24.00
2022-08-12T23:22:06.483Z,24.00
2022-08-12T23:24:37.234Z,23.90
2022-08-12T23:27:24.871Z,23.90
2022-08-12T23:30:18.892Z,23.90
2022-08-12T23:32:54.527Z,23.90
2022-08-12T23:35:28.467Z,23.90
2022-08-12T23:38:30.947Z,23.90
2022-08-12T23:41:03.918Z,23.80
2022-08-12T23:43:39.847Z,23.80
2022-08-12T23:46:09.919Z,23.80
2022-08-12T23:48:38.288Z,23.80
2022-08-12T23:51:22.635Z,23.80
2022-08-12T23:54:04.197Z,23.80
2022-08-12T23:56:35.034Z,23.70
2022-08-12T23:59:04.526Z,23.70
